createdAt,value
2023-03-22T00:01:19.853Z,10.98
2023-03-22T00:03:48.135Z,11.01
2023-03-22T00:06:16.620Z,11.02
2023-03-22T00:08:44.110Z,11.01
2023-03-22T00:11:11.803Z,10.95
2023-03-22T00:13:38.665Z,10.91
2023-03-22T00:16:05.939Z,10.84
2023-03-22T00:18:32.840Z,10.84
2023-03-22T00:21:00.572Z,10.84
2023-03-22T00:23:28.872Z,10.82
2023-03-22T00:25:56.373Z,10.79
2023-03-22T00:28:23.878Z,10.79
2023-03-22T00:30:59.765Z,10.79
2023-03-22T00:33:30.759Z,10.76
2023-03-22T00:36:09.679Z,10.73
2023-03-22T00:38:44.966Z,10.73
2023-03-22T00:41:11.887Z,10.73
2023-03-22T00:43:38.750Z,10.63
2023-03-22T00:46:06.709Z,10.57
2023-03-22T00:48:33.412Z,10.51
2023-03-22T00:51:00.176Z,10.53
2023-03-22T00:53:29.103Z,10.59
2023-03-22T00:55:59.542Z,10.61
2023-03-22T00:58:28.337Z,10.55
2023-03-22T01:00:55.022Z,10.49
2023-03-22T01:03:22.137Z,10.41
2023-03-22T01:05:49.474Z,10.41
2023-03-22T01:08:16.700Z,10.47
2023-03-22T01:10:44.599Z,10.48
2023-03-22T01:13:12.681Z,10.42
2023-03-22T01:15:39.426Z,10.41
2023-03-22T01:18:07.607Z,10.40
2023-03-22T01:20:34.877Z,10.40
2023-03-22T01:23:01.612Z,10.31
2023-03-22T01:25:28.866Z,10.26
2023-03-22T01:27:55.569Z,10.26
2023-03-22T01:30:22.267Z,10.30
2023-03-22T01:32:49.012Z,10.33
2023-03-22T01:35:17.223Z,10.31
2023-03-22T01:37:43.981Z,10.25
2023-03-22T01:40:13.509Z,10.23
2023-03-22T01:42:40.875Z,10.22
2023-03-22T01:45:16.801Z,10.24
2023-03-22T01:47:47.059Z,10.22
2023-03-22T01:50:16.602Z,10.15
2023-03-22T01:52:45.483Z,10.10
2023-03-22T01:55:22.862Z,10.06
2023-03-22T01:57:56.686Z,9.99
2023-03-22T02:00:37.295Z,10.00
2023-03-22T02:03:38.424Z,10.00
2023-03-22T02:06:06.245Z,10.02
2023-03-22T02:08:34.005Z,9.98
2023-03-22T02:11:07.288Z,9.93
2023-03-22T02:13:56.117Z,9.90
2023-03-22T02:16:44.193Z,9.95
2023-03-22T02:19:30.651Z,9.99
2023-03-22T02:22:16.280Z,9.99
2023-03-22T02:25:04.276Z,9.97
2023-03-22T02:27:52.633Z,9.91
2023-03-22T02:30:34.170Z,9.83
2023-03-22T02:33:19.357Z,9.75
2023-03-22T02:36:03.998Z,9.75
2023-03-22T02:38:52.612Z,9.75
2023-03-22T02:41:55.369Z,9.71
2023-03-22T02:44:55.842Z,9.71
2023-03-22T02:47:30.241Z,9.66
2023-03-22T02:50:09.114Z,9.56
2023-03-22T02:52:39.385Z,9.56
2023-03-22T02:55:08.797Z,9.52
2023-03-22T02:57:40.586Z,9.49
2023-03-22T03:00:13.132Z,9.46
2023-03-22T03:02:46.913Z,9.50
2023-03-22T03:05:16.496Z,9.50
2023-03-22T03:07:51.221Z,9.52
2023-03-22T03:10:21.123Z,9.51
2023-03-22T03:12:48.047Z,9.48
2023-03-22T03:15:20.561Z,9.45
2023-03-22T03:18:32.455Z,9.43
2023-03-22T03:21:17.111Z,9.41
2023-03-22T03:24:04.059Z,9.38
2023-03-22T03:27:04.061Z,9.31
2023-03-22T03:29:52.973Z,9.28
2023-03-22T03:32:27.965Z,9.30
2023-03-22T03:35:05.477Z,9.31
2023-03-22T03:37:47.830Z,9.28
2023-03-22T03:40:31.176Z,9.23
2023-03-22T03:43:02.393Z,9.24
2023-03-22T03:45:31.069Z,9.21
2023-03-22T03:48:01.030Z,9.17
2023-03-22T03:50:28.210Z,9.13
2023-03-22T03:52:56.418Z,9.17
2023-03-22T03:55:24.375Z,9.21
2023-03-22T03:57:51.110Z,9.18
2023-03-22T04:00:18.853Z,9.13
2023-03-22T04:03:08.595Z,9.08
2023-03-22T04:05:50.279Z,9.05
2023-03-22T04:08:17.092Z,9.05
2023-03-22T04:10:48.584Z,9.07
2023-03-22T04:13:15.286Z,9.09
2023-03-22T04:15:43.092Z,9.12
2023-03-22T04:18:13.854Z,9.12
2023-03-22T04:20:41.796Z,9.07
2023-03-22T04:23:11.671Z,9.01
2023-03-22T04:25:39.058Z,9.00
2023-03-22T04:28:09.967Z,8.95
2023-03-22T04:30:37.620Z,8.93
2023-03-22T04:33:22.807Z,8.97
2023-03-22T04:36:10.997Z,8.88
2023-03-22T04:38:52.004Z,8.85
2023-03-22T04:41:22.942Z,8.84
2023-03-22T04:43:52.179Z,8.82
2023-03-22T04:46:21.264Z,8.81
2023-03-22T04:48:54.729Z,8.78
2023-03-22T04:51:22.081Z,8.70
2023-03-22T04:54:03.414Z,8.68
2023-03-22T04:56:30.241Z,8.65
2023-03-22T04:58:57.134Z,8.69
2023-03-22T05:01:24.053Z,8.67
2023-03-22T05:03:59.836Z,8.63
2023-03-22T05:06:27.959Z,8.63
2023-03-22T05:09:08.815Z,8.67
2023-03-22T05:11:36.295Z,8.65
2023-03-22T05:14:17.972Z,8.58
2023-03-22T05:16:46.336Z,8.59
2023-03-22T05:19:16.010Z,8.56
2023-03-22T05:21:47.754Z,8.53
2023-03-22T05:24:15.336Z,8.53
2023-03-22T05:26:45.930Z,8.58
2023-03-22T05:29:12.864Z,8.60
2023-03-22T05:31:57.954Z,8.59
2023-03-22T05:34:24.888Z,8.55
2023-03-22T05:36:51.647Z,8.52
2023-03-22T05:39:30.737Z,8.47
2023-03-22T05:41:58.526Z,8.43
2023-03-22T05:44:25.443Z,8.33
2023-03-22T05:47:07.522Z,8.40
2023-03-22T05:49:54.513Z,8.41
2023-03-22T05:52:23.313Z,8.44
2023-03-22T05:55:01.940Z,8.53
2023-03-22T05:57:30.130Z,8.52
2023-03-22T05:59:58.260Z,8.54
2023-03-22T06:02:28.925Z,8.50
2023-03-22T06:04:55.660Z,8.52
2023-03-22T06:07:23.733Z,8.51
2023-03-22T06:09:53.635Z,8.50
2023-03-22T06:12:26.813Z,8.48
2023-03-22T06:15:13.424Z,8.41
2023-03-22T06:17:50.096Z,8.46
2023-03-22T06:20:21.623Z,8.50
2023-03-22T06:22:54.292Z,8.56
2023-03-22T06:25:20.978Z,8.68
2023-03-22T06:27:50.551Z,8.75
2023-03-22T06:30:19.196Z,8.85
2023-03-22T06:33:06.047Z,8.91
2023-03-22T06:35:36.606Z,8.90
2023-03-22T06:38:04.622Z,8.90
2023-03-22T06:40:32.334Z,8.85
2023-03-22T06:43:01.637Z,8.90
2023-03-22T06:45:33.412Z,8.99
2023-03-22T06:48:01.965Z,9.05
2023-03-22T06:50:39.683Z,9.04
2023-03-22T06:53:17.726Z,9.25
2023-03-22T06:55:44.485Z,9.27
2023-03-22T06:58:17.882Z,9.36
2023-03-22T07:00:44.976Z,9.42
2023-03-22T07:03:13.465Z,9.49
2023-03-22T07:05:46.502Z,9.55
2023-03-22T07:08:13.226Z,9.59
2023-03-22T07:10:51.492Z,9.61
2023-03-22T07:13:20.851Z,9.67
2023-03-22T07:15:49.482Z,9.71
2023-03-22T07:18:38.964Z,9.72
2023-03-22T07:21:06.139Z,9.81
2023-03-22T07:23:34.610Z,9.84
2023-03-22T07:26:07.220Z,9.89
2023-03-22T07:28:36.274Z,9.92
2023-03-22T07:31:07.725Z,10.02
2023-03-22T07:33:44.878Z,10.07
2023-03-22T07:36:12.084Z,10.15
2023-03-22T07:38:38.885Z,10.22
2023-03-22T07:41:10.566Z,10.33
2023-03-22T07:44:00.213Z,10.31
2023-03-22T07:46:39.448Z,10.39
2023-03-22T07:49:17.435Z,10.49
2023-03-22T07:52:02.891Z,10.51
2023-03-22T07:54:33.901Z,10.54
2023-03-22T07:57:03.069Z,10.55
2023-03-22T07:59:31.383Z,10.44
2023-03-22T08:02:00.468Z,10.46
2023-03-22T08:04:34.264Z,10.46
2023-03-22T08:07:11.536Z,10.50
2023-03-22T08:09:38.464Z,10.53
2023-03-22T08:12:06.189Z,10.57
2023-03-22T08:14:37.095Z,10.64
2023-03-22T08:17:08.976Z,10.72
2023-03-22T08:19:36.178Z,10.78
2023-03-22T08:22:03.684Z,10.90
2023-03-22T08:24:53.277Z,10.97
2023-03-22T08:27:26.348Z,10.99
2023-03-22T08:29:54.202Z,11.05
2023-03-22T08:32:21.688Z,11.22
2023-03-22T08:34:48.297Z,11.23
2023-03-22T08:37:14.972Z,11.32
2023-03-22T08:39:44.172Z,11.37
2023-03-22T08:42:34.091Z,11.61
2023-03-22T08:45:02.399Z,11.53
2023-03-22T08:47:29.928Z,11.65
2023-03-22T08:50:01.160Z,11.79
2023-03-22T08:52:39.316Z,11.83
2023-03-22T08:55:10.979Z,11.82
2023-03-22T08:57:59.011Z,11.89
2023-03-22T09:00:47.790Z,12.03
2023-03-22T09:03:44.487Z,12.22
2023-03-22T09:06:11.648Z,12.38
2023-03-22T09:08:42.015Z,12.43
2023-03-22T09:11:13.239Z,12.37
2023-03-22T09:13:42.002Z,12.59
2023-03-22T09:16:09.442Z,12.72
2023-03-22T09:18:38.043Z,12.82
2023-03-22T09:21:11.426Z,12.91
2023-03-22T09:24:01.233Z,12.97
2023-03-22T09:26:38.347Z,13.14
2023-03-22T09:29:06.066Z,13.20
2023-03-22T09:31:33.711Z,13.25
2023-03-22T09:34:10.687Z,13.32
2023-03-22T09:36:38.005Z,13.56
2023-03-22T09:39:06.998Z,13.66
2023-03-22T09:41:48.698Z,13.73
2023-03-22T09:44:22.372Z,13.65
2023-03-22T09:46:53.873Z,13.68
2023-03-22T09:49:26.919Z,13.74
2023-03-22T09:51:54.987Z,13.81
2023-03-22T09:54:27.681Z,13.83
2023-03-22T09:57:04.743Z,13.92
2023-03-22T10:00:12.516Z,13.97
2023-03-22T10:03:15.344Z,13.94
2023-03-22T10:05:45.722Z,14.16
2023-03-22T10:08:18.503Z,14.29
2023-03-22T10:10:45.479Z,14.25
2023-03-22T10:13:29.921Z,14.19
2023-03-22T10:16:00.323Z,14.28
2023-03-22T10:18:35.241Z,14.38
2023-03-22T10:21:08.888Z,14.49
2023-03-22T10:23:39.540Z,14.54
2023-03-22T10:26:07.886Z,14.72
2023-03-22T10:28:34.447Z,14.72
2023-03-22T10:31:02.298Z,14.75
2023-03-22T10:34:02.371Z,15.11
2023-03-22T10:36:34.802Z,15.27
2023-03-22T10:39:10.298Z,15.33
2023-03-22T10:41:36.994Z,15.32
2023-03-22T10:44:06.484Z,15.42
2023-03-22T10:46:38.998Z,15.55
2023-03-22T10:49:07.934Z,15.70
2023-03-22T10:51:40.839Z,15.92
2023-03-22T10:54:13.386Z,16.05
2023-03-22T10:56:40.107Z,16.06
2023-03-22T10:59:06.755Z,16.20
2023-03-22T11:01:37.723Z,16.46
2023-03-22T11:04:04.402Z,16.33
2023-03-22T11:06:36.990Z,16.39
2023-03-22T11:09:21.645Z,16.56
2023-03-22T11:11:53.491Z,16.53
2023-03-22T11:14:43.596Z,16.56
2023-03-22T11:17:14.904Z,16.70
2023-03-22T11:19:52.740Z,16.81
2023-03-22T11:22:42.460Z,16.85
2023-03-22T11:25:27.829Z,16.80
2023-03-22T11:27:57.760Z,17.15
2023-03-22T11:30:28.947Z,17.28
2023-03-22T11:33:19.702Z,17.32
2023-03-22T11:35:53.264Z,17.37
2023-03-22T11:38:29.609Z,17.56
2023-03-22T11:41:03.046Z,17.57
2023-03-22T11:43:40.187Z,17.58
2023-03-22T11:46:08.971Z,17.60
2023-03-22T11:48:36.441Z,17.59
2023-03-22T11:51:15.940Z,17.72
2023-03-22T11:53:48.670Z,17.75
2023-03-22T11:56:30.432Z,18.03
2023-03-22T11:59:09.111Z,17.96
2023-03-22T12:01:44.612Z,18.00
2023-03-22T12:04:15.262Z,18.08
2023-03-22T12:06:43.152Z,18.18
2023-03-22T12:09:50.062Z,18.08
2023-03-22T12:12:23.037Z,18.26
2023-03-22T12:15:11.079Z,18.24
2023-03-22T12:18:02.010Z,18.21
2023-03-22T12:20:53.414Z,18.20
2023-03-22T12:23:23.603Z,18.31
2023-03-22T12:25:56.474Z,18.18
2023-03-22T12:28:29.841Z,18.32
2023-03-22T12:30:58.512Z,18.40
2023-03-22T12:33:43.844Z,18.54
2023-03-22T12:36:16.915Z,18.68
2023-03-22T12:38:52.801Z,18.61
2023-03-22T12:41:26.382Z,18.62
2023-03-22T12:43:56.704Z,18.89
2023-03-22T12:46:46.468Z,18.92
2023-03-22T12:49:35.318Z,18.90
2023-03-22T12:52:19.541Z,18.92
2023-03-22T12:54:47.682Z,18.87
2023-03-22T12:57:16.301Z,18.93
2023-03-22T12:59:46.159Z,19.07
2023-03-22T13:02:12.697Z,19.04
2023-03-22T13:04:40.925Z,19.09
2023-03-22T13:07:31.851Z,19.03
2023-03-22T13:10:21.455Z,19.10
2023-03-22T13:13:09.776Z,18.99
2023-03-22T13:15:42.135Z,19.02
2023-03-22T13:18:32.570Z,18.94
2023-03-22T13:21:20.244Z,18.92
2023-03-22T13:24:06.453Z,19.19
2023-03-22T13:26:45.643Z,19.18
2023-03-22T13:29:49.844Z,19.16
2023-03-22T13:32:30.532Z,19.22
2023-03-22T13:34:57.448Z,19.29
2023-03-22T13:37:35.025Z,19.29
2023-03-22T13:40:13.393Z,19.32
2023-03-22T13:42:41.582Z,19.48
2023-03-22T13:45:27.443Z,19.59
2023-03-22T13:48:06.075Z,19.66
2023-03-22T13:50:34.642Z,19.58
2023-03-22T13:53:15.533Z,19.62
2023-03-22T13:55:54.270Z,19.64
2023-03-22T13:58:45.530Z,19.53
2023-03-22T14:01:27.952Z,19.62
2023-03-22T14:03:58.596Z,19.72
2023-03-22T14:06:28.942Z,19.64
2023-03-22T14:09:02.518Z,19.71
2023-03-22T14:11:38.982Z,19.70
2023-03-22T14:14:13.216Z,19.82
2023-03-22T14:16:48.747Z,19.78
2023-03-22T14:19:20.401Z,19.77
